This is the latest recevied weather packets stored in our database for station/object 9A3XK-13. If no packets are shown the sender has not sent any weather packets the latest 10 day(s).
| Time | Temp. | Humidity | Pressure | Rain* | Wind** | Luminosity | Snow |
|---|---|---|---|---|---|---|---|
| 1777955116 | 10° C | 79% | 1013.8 hPa | 0 mm | - | 26 W/m² | - |
| 1777954816 | 9.44° C | 80% | 1013.8 hPa | 0 mm | - | 25 W/m² | - |
| 1777954516 | 9.44° C | 80% | 1013.8 hPa | 0 mm | - | 25 W/m² | - |
| 1777954216 | 9.44° C | 80% | 1013.8 hPa | 0 mm | - | 24 W/m² | - |
| 1777953916 | 9.44° C | 80% | 1013.8 hPa | 0 mm | - | 19 W/m² | - |
| 1777943716 | 10.56° C | 75% | 1014 hPa | 0 mm | - | 0 W/m² | - |
| 1777943416 | 11.11° C | 74% | 1014 hPa | 0 mm | - | 0 W/m² | - |
| 1777943116 | 11.11° C | 74% | 1014 hPa | 0 mm | - | 0 W/m² | - |
| 1777942216 | 11.11° C | 74% | 1013.9 hPa | 0 mm | - | 0 W/m² | - |
| 1777940715 | 11.11° C | 73% | 1014.1 hPa | 0 mm | - | 0 W/m² | - |
| 1777940415 | 11.67° C | 73% | 1014.1 hPa | 0 mm | - | 0 W/m² | - |
| 1777940116 | 11.67° C | 72% | 1014.1 hPa | 0 mm | - | 0 W/m² | - |
| 1777939516 | 11.67° C | 71% | 1014.2 hPa | 0 mm | - | 0 W/m² | - |
| 1777934718 | 13.33° C | 66% | 1014.5 hPa | 0 mm | - | 0 W/m² | - |
| 1777928718 | 14.44° C | 60% | 1014.9 hPa | 0 mm | - | 0 W/m² | - |
| 1777927517 | 15° C | 57% | 1014.9 hPa | 0 mm | - | 0 W/m² | - |
| 1777920617 | 19.44° C | 44% | 1014.3 hPa | 0 mm | - | 0 W/m² | - |
| 1777919716 | 20° C | 40% | 1014 hPa | 0 mm | - | 0 W/m² | - |
| 1777919416 | 20.56° C | 40% | 1014 hPa | 0 mm | - | 0 W/m² | - |
| 1777918216 | 21.67° C | 38% | 1013.9 hPa | 0 mm | - | 0 W/m² | - |
| 1777914316 | 25.56° C | 26% | 1013.9 hPa | 0 mm | - | 33 W/m² | - |
| 1777913116 | 26.67° C | 24% | 1014 hPa | 0 mm | - | 100 W/m² | - |
| 1777907116 | 27.78° C | 23% | 1014.6 hPa | 0 mm | - | 465 W/m² | - |
| 1777904416 | 27.78° C | 21% | 1014.8 hPa | 0 mm | - | 598 W/m² | - |
| 1777902916 | 27.78° C | 21% | 1015 hPa | 0 mm | - | 658 W/m² | - |
* Rain latest hour (hover to see other rain measurements)
** Current wind speed in m/s (hover to see current wind gust speed)